Sarita, Texas
Current Conditions -  °F | °C
As of 3:56 AM on Wednesday 22 Oct 2014 (Local Time) from KNQI Reporting Station
Clear Clear  
Wind Chill: 69°   Ceiling: Unl
Heat Index: 69°   Visibility: 10mi
Dew Point: 67°   Wind: 7mph
Humidity: 93%   Direction: 360°N
Pressure: 29.96"   Gusts: NA
Location:  27.22°N, 97.79°W
Report Text: KNQI 220856Z AUTO 36006KT 10SM CLR 21/19 A2996 RMK AO2 SLP143 T02060194 56007
Loading
Personal Weather Stations






























Interactive Weather Map
Tropical Storm Tracking
New forecast layout! Learn more

10-Day Weather Forecast

Advertisements
Track Severe Weather on mobile